sensor_id;sensor_type;location;lat;lon;timestamp;P1;durP1;ratioP1;P2;durP2;ratioP2
4074;SDS011;2052;53.522;9.806;2023-12-20T00:02:02;9.73;;;2.30;;
4074;SDS011;2052;53.522;9.806;2023-12-20T00:04:29;9.77;;;2.67;;
4074;SDS011;2052;53.522;9.806;2023-12-20T00:06:56;6.40;;;2.40;;
4074;SDS011;2052;53.522;9.806;2023-12-20T00:09:22;10.17;;;2.50;;
4074;SDS011;2052;53.522;9.806;2023-12-20T00:11:49;5.23;;;1.60;;
4074;SDS011;2052;53.522;9.806;2023-12-20T00:14:15;16.10;;;4.40;;
4074;SDS011;2052;53.522;9.806;2023-12-20T00:16:42;13.50;;;2.77;;
4074;SDS011;2052;53.522;9.806;2023-12-20T00:19:10;8.73;;;2.00;;
4074;SDS011;2052;53.522;9.806;2023-12-20T00:21:36;9.30;;;2.47;;
4074;SDS011;2052;53.522;9.806;2023-12-20T00:24:03;13.13;;;2.77;;
4074;SDS011;2052;53.522;9.806;2023-12-20T00:26:30;8.17;;;2.27;;
4074;SDS011;2052;53.522;9.806;2023-12-20T00:28:57;7.77;;;2.20;;
4074;SDS011;2052;53.522;9.806;2023-12-20T00:31:23;6.87;;;3.17;;
4074;SDS011;2052;53.522;9.806;2023-12-20T00:33:50;7.80;;;2.60;;
4074;SDS011;2052;53.522;9.806;2023-12-20T00:36:18;9.33;;;2.70;;
4074;SDS011;2052;53.522;9.806;2023-12-20T00:38:44;11.90;;;2.33;;
4074;SDS011;2052;53.522;9.806;2023-12-20T00:41:11;6.63;;;2.40;;
4074;SDS011;2052;53.522;9.806;2023-12-20T00:43:38;22.80;;;3.33;;
4074;SDS011;2052;53.522;9.806;2023-12-20T00:46:04;9.70;;;2.40;;
4074;SDS011;2052;53.522;9.806;2023-12-20T00:48:31;6.40;;;2.57;;
4074;SDS011;2052;53.522;9.806;2023-12-20T00:50:57;5.87;;;2.47;;
4074;SDS011;2052;53.522;9.806;2023-12-20T00:53:25;17.03;;;3.13;;
4074;SDS011;2052;53.522;9.806;2023-12-20T00:55:52;7.60;;;2.40;;
4074;SDS011;2052;53.522;9.806;2023-12-20T00:58:18;7.43;;;2.33;;
4074;SDS011;2052;53.522;9.806;2023-12-20T01:00:45;11.17;;;2.10;;
4074;SDS011;2052;53.522;9.806;2023-12-20T01:03:11;12.80;;;2.50;;
4074;SDS011;2052;53.522;9.806;2023-12-20T01:05:38;9.13;;;2.37;;
4074;SDS011;2052;53.522;9.806;2023-12-20T01:08:05;18.07;;;2.40;;
4074;SDS011;2052;53.522;9.806;2023-12-20T01:10:33;15.17;;;1.90;;
4074;SDS011;2052;53.522;9.806;2023-12-20T01:13:00;12.00;;;2.00;;
4074;SDS011;2052;53.522;9.806;2023-12-20T01:15:25;17.23;;;2.67;;
4074;SDS011;2052;53.522;9.806;2023-12-20T01:17:52;20.80;;;2.63;;
4074;SDS011;2052;53.522;9.806;2023-12-20T01:20:19;6.37;;;2.77;;
4074;SDS011;2052;53.522;9.806;2023-12-20T01:22:45;12.73;;;2.07;;
4074;SDS011;2052;53.522;9.806;2023-12-20T01:25:12;10.90;;;2.63;;
4074;SDS011;2052;53.522;9.806;2023-12-20T01:27:40;5.83;;;2.40;;
4074;SDS011;2052;53.522;9.806;2023-12-20T01:30:07;19.97;;;2.50;;
4074;SDS011;2052;53.522;9.806;2023-12-20T01:32:34;9.13;;;2.87;;
4074;SDS011;2052;53.522;9.806;2023-12-20T01:35:00;11.00;;;2.33;;
4074;SDS011;2052;53.522;9.806;2023-12-20T01:37:27;7.30;;;3.37;;
4074;SDS011;2052;53.522;9.806;2023-12-20T01:39:54;13.63;;;1.87;;
4074;SDS011;2052;53.522;9.806;2023-12-20T01:42:20;21.67;;;3.00;;
4074;SDS011;2052;53.522;9.806;2023-12-20T01:44:48;11.17;;;2.30;;
4074;SDS011;2052;53.522;9.806;2023-12-20T01:47:15;10.30;;;2.70;;
4074;SDS011;2052;53.522;9.806;2023-12-20T01:49:42;14.03;;;2.40;;
4074;SDS011;2052;53.522;9.806;2023-12-20T01:52:08;7.83;;;3.63;;
4074;SDS011;2052;53.522;9.806;2023-12-20T01:54:37;23.47;;;2.93;;
4074;SDS011;2052;53.522;9.806;2023-12-20T01:57:04;12.80;;;2.60;;
4074;SDS011;2052;53.522;9.806;2023-12-20T01:59:31;15.70;;;3.30;;
4074;SDS011;2052;53.522;9.806;2023-12-20T02:01:59;11.70;;;2.33;;
4074;SDS011;2052;53.522;9.806;2023-12-20T02:04:25;16.17;;;2.60;;
4074;SDS011;2052;53.522;9.806;2023-12-20T02:06:52;15.63;;;2.60;;
4074;SDS011;2052;53.522;9.806;2023-12-20T02:09:19;6.77;;;2.30;;
4074;SDS011;2052;53.522;9.806;2023-12-20T02:11:46;11.10;;;2.10;;
4074;SDS011;2052;53.522;9.806;2023-12-20T02:14:12;8.73;;;2.73;;
4074;SDS011;2052;53.522;9.806;2023-12-20T02:16:39;7.40;;;2.50;;
4074;SDS011;2052;53.522;9.806;2023-12-20T02:19:08;14.23;;;2.93;;
4074;SDS011;2052;53.522;9.806;2023-12-20T02:21:41;8.83;;;3.53;;
4074;SDS011;2052;53.522;9.806;2023-12-20T02:24:07;8.83;;;2.20;;
4074;SDS011;2052;53.522;9.806;2023-12-20T02:26:34;8.13;;;3.13;;
4074;SDS011;2052;53.522;9.806;2023-12-20T02:29:00;6.97;;;2.60;;
4074;SDS011;2052;53.522;9.806;2023-12-20T02:31:27;12.47;;;3.20;;
4074;SDS011;2052;53.522;9.806;2023-12-20T02:33:54;7.17;;;2.70;;
4074;SDS011;2052;53.522;9.806;2023-12-20T02:36:20;8.60;;;3.23;;
4074;SDS011;2052;53.522;9.806;2023-12-20T02:38:48;8.87;;;2.70;;
4074;SDS011;2052;53.522;9.806;2023-12-20T02:41:15;10.83;;;3.50;;
4074;SDS011;2052;53.522;9.806;2023-12-20T02:43:43;9.23;;;3.03;;
4074;SDS011;2052;53.522;9.806;2023-12-20T02:46:09;7.70;;;4.30;;
4074;SDS011;2052;53.522;9.806;2023-12-20T02:48:36;12.43;;;3.27;;
4074;SDS011;2052;53.522;9.806;2023-12-20T02:51:02;16.93;;;2.73;;
4074;SDS011;2052;53.522;9.806;2023-12-20T02:53:29;6.17;;;2.20;;
4074;SDS011;2052;53.522;9.806;2023-12-20T02:55:57;12.47;;;3.00;;
4074;SDS011;2052;53.522;9.806;2023-12-20T02:58:24;12.30;;;3.07;;
4074;SDS011;2052;53.522;9.806;2023-12-20T03:00:50;9.77;;;2.90;;
4074;SDS011;2052;53.522;9.806;2023-12-20T03:03:17;16.77;;;3.70;;
4074;SDS011;2052;53.522;9.806;2023-12-20T03:05:43;7.80;;;3.40;;
4074;SDS011;2052;53.522;9.806;2023-12-20T03:08:11;10.37;;;2.90;;
4074;SDS011;2052;53.522;9.806;2023-12-20T03:10:39;9.80;;;2.43;;
4074;SDS011;2052;53.522;9.806;2023-12-20T03:13:07;13.93;;;2.60;;
4074;SDS011;2052;53.522;9.806;2023-12-20T03:15:33;17.40;;;3.20;;
4074;SDS011;2052;53.522;9.806;2023-12-20T03:18:00;13.17;;;3.07;;
4074;SDS011;2052;53.522;9.806;2023-12-20T03:20:26;8.20;;;3.03;;
4074;SDS011;2052;53.522;9.806;2023-12-20T03:22:53;18.53;;;3.20;;
4074;SDS011;2052;53.522;9.806;2023-12-20T03:25:20;9.30;;;2.83;;
4074;SDS011;2052;53.522;9.806;2023-12-20T03:27:46;10.10;;;2.77;;
4074;SDS011;2052;53.522;9.806;2023-12-20T03:30:14;8.70;;;2.10;;
4074;SDS011;2052;53.522;9.806;2023-12-20T03:32:41;14.00;;;3.33;;
4074;SDS011;2052;53.522;9.806;2023-12-20T03:35:07;5.73;;;2.23;;
4074;SDS011;2052;53.522;9.806;2023-12-20T03:37:34;7.80;;;2.50;;
4074;SDS011;2052;53.522;9.806;2023-12-20T03:40:00;8.07;;;2.87;;
4074;SDS011;2052;53.522;9.806;2023-12-20T03:42:27;10.80;;;2.90;;
4074;SDS011;2052;53.522;9.806;2023-12-20T03:44:54;5.60;;;3.03;;
4074;SDS011;2052;53.522;9.806;2023-12-20T03:47:22;12.17;;;2.40;;
4074;SDS011;2052;53.522;9.806;2023-12-20T03:49:48;16.07;;;3.13;;
4074;SDS011;2052;53.522;9.806;2023-12-20T03:52:15;6.83;;;2.43;;
4074;SDS011;2052;53.522;9.806;2023-12-20T03:54:42;11.57;;;3.10;;
4074;SDS011;2052;53.522;9.806;2023-12-20T03:57:08;6.73;;;2.00;;
4074;SDS011;2052;53.522;9.806;2023-12-20T03:59:35;8.27;;;3.27;;
4074;SDS011;2052;53.522;9.806;2023-12-20T04:02:02;12.13;;;3.17;;
4074;SDS011;2052;53.522;9.806;2023-12-20T04:04:30;9.60;;;4.37;;
4074;SDS011;2052;53.522;9.806;2023-12-20T04:06:56;12.63;;;4.20;;
4074;SDS011;2052;53.522;9.806;2023-12-20T04:09:23;9.80;;;2.60;;
4074;SDS011;2052;53.522;9.806;2023-12-20T04:11:49;4.60;;;2.50;;
4074;SDS011;2052;53.522;9.806;2023-12-20T04:14:16;12.20;;;3.33;;
4074;SDS011;2052;53.522;9.806;2023-12-20T04:16:43;3.80;;;2.77;;
4074;SDS011;2052;53.522;9.806;2023-12-20T04:19:09;16.60;;;2.73;;
4074;SDS011;2052;53.522;9.806;2023-12-20T04:21:37;11.30;;;2.20;;
4074;SDS011;2052;53.522;9.806;2023-12-20T04:24:04;6.60;;;2.30;;
4074;SDS011;2052;53.522;9.806;2023-12-20T04:26:31;8.60;;;2.40;;
4074;SDS011;2052;53.522;9.806;2023-12-20T04:28:57;8.63;;;2.40;;
4074;SDS011;2052;53.522;9.806;2023-12-20T04:31:24;12.13;;;2.40;;
4074;SDS011;2052;53.522;9.806;2023-12-20T04:33:50;12.33;;;3.27;;
4074;SDS011;2052;53.522;9.806;2023-12-20T04:36:17;13.07;;;2.70;;
4074;SDS011;2052;53.522;9.806;2023-12-20T04:38:45;12.03;;;2.90;;
4074;SDS011;2052;53.522;9.806;2023-12-20T04:41:11;7.77;;;2.47;;
4074;SDS011;2052;53.522;9.806;2023-12-20T04:43:40;9.10;;;2.67;;
4074;SDS011;2052;53.522;9.806;2023-12-20T04:46:07;9.53;;;2.60;;
4074;SDS011;2052;53.522;9.806;2023-12-20T04:48:33;5.73;;;4.27;;
4074;SDS011;2052;53.522;9.806;2023-12-20T04:51:00;12.07;;;3.50;;
4074;SDS011;2052;53.522;9.806;2023-12-20T04:53:27;13.87;;;2.97;;
4074;SDS011;2052;53.522;9.806;2023-12-20T04:55:54;9.30;;;2.83;;
4074;SDS011;2052;53.522;9.806;2023-12-20T04:58:21;19.00;;;3.70;;
4074;SDS011;2052;53.522;9.806;2023-12-20T05:00:48;15.73;;;3.67;;
4074;SDS011;2052;53.522;9.806;2023-12-20T05:03:13;11.90;;;3.40;;
4074;SDS011;2052;53.522;9.806;2023-12-20T05:05:40;7.40;;;2.50;;
4074;SDS011;2052;53.522;9.806;2023-12-20T05:08:06;6.77;;;2.73;;
4074;SDS011;2052;53.522;9.806;2023-12-20T05:10:33;6.87;;;2.50;;
4074;SDS011;2052;53.522;9.806;2023-12-20T05:13:03;10.30;;;2.80;;
4074;SDS011;2052;53.522;9.806;2023-12-20T05:15:29;12.83;;;3.67;;
4074;SDS011;2052;53.522;9.806;2023-12-20T05:17:56;23.00;;;4.00;;
4074;SDS011;2052;53.522;9.806;2023-12-20T05:20:23;5.53;;;2.80;;
4074;SDS011;2052;53.522;9.806;2023-12-20T05:22:50;21.33;;;3.90;;
4074;SDS011;2052;53.522;9.806;2023-12-20T05:25:18;20.07;;;3.33;;
4074;SDS011;2052;53.522;9.806;2023-12-20T05:27:45;8.23;;;3.20;;
4074;SDS011;2052;53.522;9.806;2023-12-20T05:30:14;21.23;;;4.00;;
4074;SDS011;2052;53.522;9.806;2023-12-20T05:32:40;8.30;;;3.07;;
4074;SDS011;2052;53.522;9.806;2023-12-20T05:35:07;20.07;;;3.00;;
4074;SDS011;2052;53.522;9.806;2023-12-20T05:37:33;13.50;;;3.63;;
4074;SDS011;2052;53.522;9.806;2023-12-20T05:40:00;7.20;;;2.70;;
4074;SDS011;2052;53.522;9.806;2023-12-20T05:42:27;12.43;;;3.20;;
4074;SDS011;2052;53.522;9.806;2023-12-20T05:44:53;24.90;;;3.37;;
4074;SDS011;2052;53.522;9.806;2023-12-20T05:47:21;5.20;;;2.57;;
4074;SDS011;2052;53.522;9.806;2023-12-20T05:49:48;15.80;;;3.20;;
4074;SDS011;2052;53.522;9.806;2023-12-20T05:52:15;11.80;;;2.80;;
4074;SDS011;2052;53.522;9.806;2023-12-20T05:54:41;13.83;;;4.53;;
4074;SDS011;2052;53.522;9.806;2023-12-20T05:57:08;13.47;;;3.20;;
4074;SDS011;2052;53.522;9.806;2023-12-20T05:59:34;10.00;;;2.70;;
4074;SDS011;2052;53.522;9.806;2023-12-20T06:02:02;17.57;;;3.50;;
4074;SDS011;2052;53.522;9.806;2023-12-20T06:04:31;19.23;;;3.20;;
4074;SDS011;2052;53.522;9.806;2023-12-20T06:06:58;19.77;;;3.57;;
4074;SDS011;2052;53.522;9.806;2023-12-20T06:09:24;9.00;;;3.00;;
4074;SDS011;2052;53.522;9.806;2023-12-20T06:11:51;5.70;;;2.47;;
4074;SDS011;2052;53.522;9.806;2023-12-20T06:14:17;12.20;;;3.30;;
4074;SDS011;2052;53.522;9.806;2023-12-20T06:16:44;25.97;;;3.90;;
4074;SDS011;2052;53.522;9.806;2023-12-20T06:19:11;6.70;;;3.73;;
4074;SDS011;2052;53.522;9.806;2023-12-20T06:21:40;11.07;;;2.43;;
4074;SDS011;2052;53.522;9.806;2023-12-20T06:24:06;9.97;;;2.67;;
4074;SDS011;2052;53.522;9.806;2023-12-20T06:26:33;7.43;;;2.40;;
4074;SDS011;2052;53.522;9.806;2023-12-20T06:28:58;11.90;;;3.10;;
4074;SDS011;2052;53.522;9.806;2023-12-20T06:31:25;6.93;;;2.47;;
4074;SDS011;2052;53.522;9.806;2023-12-20T06:33:52;14.33;;;3.00;;
4074;SDS011;2052;53.522;9.806;2023-12-20T06:36:22;7.33;;;3.03;;
4074;SDS011;2052;53.522;9.806;2023-12-20T06:38:50;13.87;;;2.93;;
4074;SDS011;2052;53.522;9.806;2023-12-20T06:41:17;12.30;;;3.43;;
4074;SDS011;2052;53.522;9.806;2023-12-20T06:43:43;8.47;;;2.90;;
4074;SDS011;2052;53.522;9.806;2023-12-20T06:46:10;7.83;;;2.63;;
4074;SDS011;2052;53.522;9.806;2023-12-20T06:48:38;10.47;;;3.13;;
4074;SDS011;2052;53.522;9.806;2023-12-20T06:51:05;9.97;;;2.73;;
4074;SDS011;2052;53.522;9.806;2023-12-20T06:53:35;9.23;;;2.23;;
4074;SDS011;2052;53.522;9.806;2023-12-20T06:56:02;11.10;;;3.50;;
4074;SDS011;2052;53.522;9.806;2023-12-20T06:58:28;7.53;;;2.70;;
4074;SDS011;2052;53.522;9.806;2023-12-20T07:00:55;13.73;;;2.97;;
4074;SDS011;2052;53.522;9.806;2023-12-20T07:03:22;16.93;;;3.60;;
4074;SDS011;2052;53.522;9.806;2023-12-20T07:05:49;9.23;;;2.60;;
4074;SDS011;2052;53.522;9.806;2023-12-20T07:08:16;12.37;;;3.77;;
4074;SDS011;2052;53.522;9.806;2023-12-20T07:10:42;10.97;;;2.60;;
4074;SDS011;2052;53.522;9.806;2023-12-20T07:13:10;8.50;;;2.87;;
4074;SDS011;2052;53.522;9.806;2023-12-20T07:15:37;20.70;;;3.60;;
4074;SDS011;2052;53.522;9.806;2023-12-20T07:18:04;16.23;;;4.67;;
4074;SDS011;2052;53.522;9.806;2023-12-20T07:20:31;17.33;;;3.20;;
4074;SDS011;2052;53.522;9.806;2023-12-20T07:22:58;7.07;;;3.03;;
4074;SDS011;2052;53.522;9.806;2023-12-20T07:25:25;10.80;;;3.67;;
4074;SDS011;2052;53.522;9.806;2023-12-20T07:27:52;8.87;;;2.40;;
4074;SDS011;2052;53.522;9.806;2023-12-20T07:30:20;18.33;;;4.40;;
4074;SDS011;2052;53.522;9.806;2023-12-20T07:32:46;11.63;;;3.70;;
4074;SDS011;2052;53.522;9.806;2023-12-20T07:35:13;16.03;;;3.97;;
4074;SDS011;2052;53.522;9.806;2023-12-20T07:37:39;10.87;;;2.90;;
4074;SDS011;2052;53.522;9.806;2023-12-20T07:40:06;15.80;;;4.40;;
4074;SDS011;2052;53.522;9.806;2023-12-20T07:42:34;9.50;;;3.30;;
4074;SDS011;2052;53.522;9.806;2023-12-20T07:45:00;12.17;;;3.07;;
4074;SDS011;2052;53.522;9.806;2023-12-20T07:47:28;4.70;;;2.63;;
4074;SDS011;2052;53.522;9.806;2023-12-20T07:49:55;7.20;;;2.63;;
4074;SDS011;2052;53.522;9.806;2023-12-20T07:52:22;18.00;;;3.93;;
4074;SDS011;2052;53.522;9.806;2023-12-20T07:54:49;9.80;;;2.90;;
4074;SDS011;2052;53.522;9.806;2023-12-20T07:57:16;9.87;;;3.40;;
4074;SDS011;2052;53.522;9.806;2023-12-20T07:59:42;7.20;;;3.17;;
4074;SDS011;2052;53.522;9.806;2023-12-20T08:02:09;12.73;;;4.00;;
4074;SDS011;2052;53.522;9.806;2023-12-20T08:04:37;17.73;;;4.53;;
4074;SDS011;2052;53.522;9.806;2023-12-20T08:07:04;17.93;;;4.13;;
4074;SDS011;2052;53.522;9.806;2023-12-20T08:09:30;10.57;;;3.40;;
4074;SDS011;2052;53.522;9.806;2023-12-20T08:11:58;11.70;;;3.50;;
4074;SDS011;2052;53.522;9.806;2023-12-20T08:14:25;16.93;;;4.03;;
4074;SDS011;2052;53.522;9.806;2023-12-20T08:16:52;10.70;;;3.60;;
4074;SDS011;2052;53.522;9.806;2023-12-20T08:19:18;8.27;;;3.07;;
4074;SDS011;2052;53.522;9.806;2023-12-20T08:21:46;12.47;;;3.40;;
4074;SDS011;2052;53.522;9.806;2023-12-20T08:24:13;13.63;;;3.80;;
4074;SDS011;2052;53.522;9.806;2023-12-20T08:26:39;18.57;;;3.87;;
4074;SDS011;2052;53.522;9.806;2023-12-20T08:29:06;12.53;;;2.93;;
4074;SDS011;2052;53.522;9.806;2023-12-20T08:31:32;10.03;;;2.70;;
4074;SDS011;2052;53.522;9.806;2023-12-20T08:33:59;12.30;;;3.83;;
4074;SDS011;2052;53.522;9.806;2023-12-20T08:36:25;11.70;;;4.13;;
4074;SDS011;2052;53.522;9.806;2023-12-20T08:38:53;13.47;;;4.40;;
4074;SDS011;2052;53.522;9.806;2023-12-20T08:41:20;15.17;;;5.43;;
4074;SDS011;2052;53.522;9.806;2023-12-20T08:43:47;16.30;;;3.30;;
4074;SDS011;2052;53.522;9.806;2023-12-20T08:46:14;11.93;;;2.90;;
4074;SDS011;2052;53.522;9.806;2023-12-20T08:48:40;14.13;;;3.20;;
4074;SDS011;2052;53.522;9.806;2023-12-20T08:51:07;8.00;;;2.87;;
4074;SDS011;2052;53.522;9.806;2023-12-20T08:53:34;12.27;;;3.10;;
4074;SDS011;2052;53.522;9.806;2023-12-20T08:56:02;9.27;;;3.17;;
4074;SDS011;2052;53.522;9.806;2023-12-20T08:58:29;12.20;;;2.80;;
4074;SDS011;2052;53.522;9.806;2023-12-20T09:00:55;8.47;;;2.33;;
4074;SDS011;2052;53.522;9.806;2023-12-20T09:03:23;13.33;;;3.07;;
4074;SDS011;2052;53.522;9.806;2023-12-20T09:05:49;10.00;;;3.30;;
4074;SDS011;2052;53.522;9.806;2023-12-20T09:08:16;11.47;;;3.07;;
4074;SDS011;2052;53.522;9.806;2023-12-20T09:10:43;13.60;;;2.33;;
4074;SDS011;2052;53.522;9.806;2023-12-20T09:13:10;9.63;;;2.73;;
4074;SDS011;2052;53.522;9.806;2023-12-20T09:15:37;8.27;;;2.53;;
4074;SDS011;2052;53.522;9.806;2023-12-20T09:18:04;9.90;;;1.80;;
4074;SDS011;2052;53.522;9.806;2023-12-20T09:20:31;7.67;;;2.17;;
4074;SDS011;2052;53.522;9.806;2023-12-20T09:22:58;6.03;;;1.60;;
4074;SDS011;2052;53.522;9.806;2023-12-20T09:25:24;3.67;;;1.53;;
4074;SDS011;2052;53.522;9.806;2023-12-20T09:27:51;3.37;;;1.63;;
4074;SDS011;2052;53.522;9.806;2023-12-20T09:30:19;5.10;;;1.40;;
4074;SDS011;2052;53.522;9.806;2023-12-20T09:32:45;1.70;;;1.07;;
4074;SDS011;2052;53.522;9.806;2023-12-20T09:35:12;3.93;;;1.73;;
4074;SDS011;2052;53.522;9.806;2023-12-20T09:37:39;1.87;;;1.00;;
4074;SDS011;2052;53.522;9.806;2023-12-20T09:40:10;1.13;;;1.00;;
4074;SDS011;2052;53.522;9.806;2023-12-20T09:42:39;2.10;;;1.00;;
4074;SDS011;2052;53.522;9.806;2023-12-20T09:45:26;0.87;;;0.80;;
4074;SDS011;2052;53.522;9.806;2023-12-20T09:47:53;1.83;;;1.20;;
4074;SDS011;2052;53.522;9.806;2023-12-20T09:50:20;2.00;;;1.10;;
4074;SDS011;2052;53.522;9.806;2023-12-20T09:52:49;2.07;;;1.00;;
4074;SDS011;2052;53.522;9.806;2023-12-20T09:55:17;1.23;;;0.90;;
4074;SDS011;2052;53.522;9.806;2023-12-20T09:57:43;1.63;;;1.00;;
4074;SDS011;2052;53.522;9.806;2023-12-20T10:00:11;1.40;;;0.80;;
4074;SDS011;2052;53.522;9.806;2023-12-20T10:02:42;0.87;;;0.80;;
4074;SDS011;2052;53.522;9.806;2023-12-20T10:05:15;1.20;;;0.80;;
4074;SDS011;2052;53.522;9.806;2023-12-20T10:07:44;2.63;;;0.90;;
4074;SDS011;2052;53.522;9.806;2023-12-20T10:10:10;2.70;;;0.90;;
4074;SDS011;2052;53.522;9.806;2023-12-20T10:12:38;1.73;;;0.80;;
4074;SDS011;2052;53.522;9.806;2023-12-20T10:15:05;3.67;;;0.80;;
4074;SDS011;2052;53.522;9.806;2023-12-20T10:17:32;1.90;;;1.03;;
4074;SDS011;2052;53.522;9.806;2023-12-20T10:20:00;4.73;;;0.90;;
4074;SDS011;2052;53.522;9.806;2023-12-20T10:22:27;6.47;;;1.23;;
4074;SDS011;2052;53.522;9.806;2023-12-20T10:24:56;4.40;;;1.10;;
4074;SDS011;2052;53.522;9.806;2023-12-20T10:27:22;4.30;;;1.10;;
4074;SDS011;2052;53.522;9.806;2023-12-20T10:29:50;3.37;;;1.17;;
4074;SDS011;2052;53.522;9.806;2023-12-20T10:32:24;1.10;;;1.00;;
4074;SDS011;2052;53.522;9.806;2023-12-20T10:34:52;3.80;;;1.03;;
4074;SDS011;2052;53.522;9.806;2023-12-20T10:37:20;2.47;;;1.47;;
4074;SDS011;2052;53.522;9.806;2023-12-20T10:39:48;2.90;;;1.60;;
4074;SDS011;2052;53.522;9.806;2023-12-20T10:42:16;4.00;;;1.27;;
4074;SDS011;2052;53.522;9.806;2023-12-20T10:44:43;3.33;;;1.83;;
4074;SDS011;2052;53.522;9.806;2023-12-20T10:47:09;4.40;;;1.40;;
4074;SDS011;2052;53.522;9.806;2023-12-20T10:49:38;5.20;;;1.43;;
4074;SDS011;2052;53.522;9.806;2023-12-20T10:52:05;2.03;;;1.30;;
4074;SDS011;2052;53.522;9.806;2023-12-20T10:54:34;6.13;;;1.27;;
4074;SDS011;2052;53.522;9.806;2023-12-20T10:57:00;4.60;;;1.20;;
4074;SDS011;2052;53.522;9.806;2023-12-20T10:59:30;6.53;;;1.67;;
4074;SDS011;2052;53.522;9.806;2023-12-20T11:01:59;2.93;;;0.90;;
4074;SDS011;2052;53.522;9.806;2023-12-20T11:04:31;3.37;;;1.67;;
4074;SDS011;2052;53.522;9.806;2023-12-20T11:09:49;2.73;;;1.33;;
4074;SDS011;2052;53.522;9.806;2023-12-20T11:12:25;2.70;;;1.30;;
4074;SDS011;2052;53.522;9.806;2023-12-20T11:14:58;10.67;;;1.60;;
4074;SDS011;2052;53.522;9.806;2023-12-20T11:17:29;11.03;;;2.07;;
4074;SDS011;2052;53.522;9.806;2023-12-20T11:20:08;2.03;;;1.23;;
4074;SDS011;2052;53.522;9.806;2023-12-20T11:22:38;2.77;;;1.90;;
4074;SDS011;2052;53.522;9.806;2023-12-20T11:25:09;6.43;;;1.77;;
4074;SDS011;2052;53.522;9.806;2023-12-20T11:27:40;4.67;;;1.23;;
4074;SDS011;2052;53.522;9.806;2023-12-20T11:30:08;6.07;;;1.80;;
4074;SDS011;2052;53.522;9.806;2023-12-20T11:32:35;8.57;;;1.90;;
4074;SDS011;2052;53.522;9.806;2023-12-20T11:35:16;15.20;;;1.70;;
4074;SDS011;2052;53.522;9.806;2023-12-20T11:37:43;4.67;;;1.37;;
4074;SDS011;2052;53.522;9.806;2023-12-20T11:40:14;4.40;;;1.70;;
4074;SDS011;2052;53.522;9.806;2023-12-20T11:42:42;7.23;;;2.00;;
4074;SDS011;2052;53.522;9.806;2023-12-20T11:45:09;6.50;;;1.57;;
4074;SDS011;2052;53.522;9.806;2023-12-20T11:47:38;11.60;;;2.10;;
4074;SDS011;2052;53.522;9.806;2023-12-20T11:50:05;4.60;;;1.30;;
4074;SDS011;2052;53.522;9.806;2023-12-20T11:52:32;3.73;;;1.40;;
4074;SDS011;2052;53.522;9.806;2023-12-20T11:54:59;6.30;;;1.57;;
4074;SDS011;2052;53.522;9.806;2023-12-20T11:57:27;4.20;;;2.00;;
4074;SDS011;2052;53.522;9.806;2023-12-20T11:59:54;7.50;;;2.00;;
4074;SDS011;2052;53.522;9.806;2023-12-20T12:02:21;8.07;;;2.00;;
4074;SDS011;2052;53.522;9.806;2023-12-20T12:04:48;8.07;;;1.80;;
4074;SDS011;2052;53.522;9.806;2023-12-20T12:07:16;3.60;;;1.37;;
4074;SDS011;2052;53.522;9.806;2023-12-20T12:09:42;10.77;;;2.03;;
4074;SDS011;2052;53.522;9.806;2023-12-20T12:12:09;6.90;;;2.23;;
4074;SDS011;2052;53.522;9.806;2023-12-20T12:14:37;7.83;;;2.33;;
4074;SDS011;2052;53.522;9.806;2023-12-20T12:17:06;7.40;;;2.23;;
4074;SDS011;2052;53.522;9.806;2023-12-20T12:19:36;5.93;;;1.77;;
4074;SDS011;2052;53.522;9.806;2023-12-20T12:22:06;14.57;;;2.80;;
4074;SDS011;2052;53.522;9.806;2023-12-20T12:24:37;3.93;;;1.90;;
4074;SDS011;2052;53.522;9.806;2023-12-20T12:27:05;12.10;;;1.70;;
4074;SDS011;2052;53.522;9.806;2023-12-20T12:29:32;9.20;;;2.00;;
4074;SDS011;2052;53.522;9.806;2023-12-20T12:32:00;6.53;;;2.20;;
4074;SDS011;2052;53.522;9.806;2023-12-20T12:34:27;9.77;;;2.90;;
4074;SDS011;2052;53.522;9.806;2023-12-20T12:36:54;8.80;;;2.13;;
4074;SDS011;2052;53.522;9.806;2023-12-20T12:39:20;4.00;;;1.60;;
4074;SDS011;2052;53.522;9.806;2023-12-20T12:41:47;14.17;;;2.80;;
4074;SDS011;2052;53.522;9.806;2023-12-20T12:44:13;14.33;;;1.83;;
4074;SDS011;2052;53.522;9.806;2023-12-20T12:46:40;6.63;;;1.47;;
4074;SDS011;2052;53.522;9.806;2023-12-20T12:49:08;7.43;;;2.20;;
4074;SDS011;2052;53.522;9.806;2023-12-20T12:51:35;3.57;;;1.67;;
4074;SDS011;2052;53.522;9.806;2023-12-20T12:54:01;7.73;;;2.63;;
4074;SDS011;2052;53.522;9.806;2023-12-20T12:56:28;4.40;;;2.20;;
4074;SDS011;2052;53.522;9.806;2023-12-20T12:58:55;10.40;;;2.43;;
4074;SDS011;2052;53.522;9.806;2023-12-20T13:01:22;9.20;;;2.33;;
4074;SDS011;2052;53.522;9.806;2023-12-20T13:03:49;8.10;;;2.00;;
4074;SDS011;2052;53.522;9.806;2023-12-20T13:06:16;14.03;;;3.30;;
4074;SDS011;2052;53.522;9.806;2023-12-20T13:08:43;4.73;;;2.13;;
4074;SDS011;2052;53.522;9.806;2023-12-20T13:11:10;8.30;;;2.30;;
4074;SDS011;2052;53.522;9.806;2023-12-20T13:13:36;8.50;;;2.83;;
4074;SDS011;2052;53.522;9.806;2023-12-20T13:16:03;7.73;;;1.90;;
4074;SDS011;2052;53.522;9.806;2023-12-20T13:18:30;15.17;;;2.67;;
4074;SDS011;2052;53.522;9.806;2023-12-20T13:20:57;9.50;;;2.87;;
4074;SDS011;2052;53.522;9.806;2023-12-20T13:23:25;16.70;;;3.00;;
4074;SDS011;2052;53.522;9.806;2023-12-20T13:25:51;13.50;;;2.60;;
4074;SDS011;2052;53.522;9.806;2023-12-20T13:28:18;8.50;;;2.83;;
4074;SDS011;2052;53.522;9.806;2023-12-20T13:30:44;21.83;;;3.50;;
4074;SDS011;2052;53.522;9.806;2023-12-20T13:33:11;14.07;;;3.33;;
4074;SDS011;2052;53.522;9.806;2023-12-20T13:35:38;12.63;;;3.23;;
4074;SDS011;2052;53.522;9.806;2023-12-20T13:38:04;19.80;;;3.20;;
4074;SDS011;2052;53.522;9.806;2023-12-20T13:40:34;22.03;;;3.70;;
4074;SDS011;2052;53.522;9.806;2023-12-20T13:43:00;14.07;;;3.93;;
4074;SDS011;2052;53.522;9.806;2023-12-20T13:45:28;8.83;;;3.60;;
4074;SDS011;2052;53.522;9.806;2023-12-20T13:47:54;9.70;;;4.30;;
4074;SDS011;2052;53.522;9.806;2023-12-20T13:50:21;15.27;;;3.10;;
4074;SDS011;2052;53.522;9.806;2023-12-20T13:52:47;19.13;;;3.87;;
4074;SDS011;2052;53.522;9.806;2023-12-20T13:55:14;16.43;;;3.43;;
4074;SDS011;2052;53.522;9.806;2023-12-20T13:57:43;22.77;;;3.60;;
4074;SDS011;2052;53.522;9.806;2023-12-20T14:00:10;22.40;;;4.10;;
4074;SDS011;2052;53.522;9.806;2023-12-20T14:02:39;15.93;;;4.40;;
4074;SDS011;2052;53.522;9.806;2023-12-20T14:05:06;11.43;;;4.13;;
4074;SDS011;2052;53.522;9.806;2023-12-20T14:07:33;16.27;;;4.57;;
4074;SDS011;2052;53.522;9.806;2023-12-20T14:10:02;18.60;;;4.17;;
4074;SDS011;2052;53.522;9.806;2023-12-20T14:12:30;13.07;;;6.33;;
4074;SDS011;2052;53.522;9.806;2023-12-20T14:15:02;18.10;;;5.13;;
4074;SDS011;2052;53.522;9.806;2023-12-20T14:17:29;21.23;;;3.57;;
4074;SDS011;2052;53.522;9.806;2023-12-20T14:19:56;20.53;;;4.30;;
4074;SDS011;2052;53.522;9.806;2023-12-20T14:22:23;19.10;;;4.40;;
4074;SDS011;2052;53.522;9.806;2023-12-20T14:24:50;18.40;;;4.27;;
4074;SDS011;2052;53.522;9.806;2023-12-20T14:27:17;14.80;;;4.00;;
4074;SDS011;2052;53.522;9.806;2023-12-20T14:29:46;15.20;;;3.20;;
4074;SDS011;2052;53.522;9.806;2023-12-20T14:32:14;17.20;;;4.00;;
4074;SDS011;2052;53.522;9.806;2023-12-20T14:34:41;17.23;;;3.60;;
4074;SDS011;2052;53.522;9.806;2023-12-20T14:37:07;14.77;;;3.70;;
4074;SDS011;2052;53.522;9.806;2023-12-20T14:39:34;14.40;;;3.97;;
4074;SDS011;2052;53.522;9.806;2023-12-20T14:42:04;16.17;;;3.57;;
4074;SDS011;2052;53.522;9.806;2023-12-20T14:44:31;17.40;;;4.27;;
4074;SDS011;2052;53.522;9.806;2023-12-20T14:46:58;8.57;;;3.60;;
4074;SDS011;2052;53.522;9.806;2023-12-20T14:49:28;11.90;;;3.23;;
4074;SDS011;2052;53.522;9.806;2023-12-20T14:51:55;20.70;;;4.10;;
4074;SDS011;2052;53.522;9.806;2023-12-20T14:54:21;13.57;;;3.87;;
4074;SDS011;2052;53.522;9.806;2023-12-20T14:56:48;16.83;;;4.20;;
4074;SDS011;2052;53.522;9.806;2023-12-20T14:59:14;17.57;;;3.50;;
4074;SDS011;2052;53.522;9.806;2023-12-20T15:01:41;26.77;;;5.37;;
4074;SDS011;2052;53.522;9.806;2023-12-20T15:04:09;14.20;;;3.80;;
4074;SDS011;2052;53.522;9.806;2023-12-20T15:06:37;11.93;;;4.17;;
4074;SDS011;2052;53.522;9.806;2023-12-20T15:09:03;14.13;;;3.93;;
4074;SDS011;2052;53.522;9.806;2023-12-20T15:11:31;17.70;;;4.10;;